sensor_id;sensor_type;location;lat;lon;timestamp;temperature;humidity
22781;DHT22;11557;50.884;4.322;2022-09-02T00:01:31;20.50;99.90
22781;DHT22;11557;50.884;4.322;2022-09-02T00:04:06;20.50;99.90
22781;DHT22;11557;50.884;4.322;2022-09-02T00:06:33;20.50;99.90
22781;DHT22;11557;50.884;4.322;2022-09-02T00:08:59;20.60;99.90
22781;DHT22;11557;50.884;4.322;2022-09-02T00:11:28;20.50;99.90
22781;DHT22;11557;50.884;4.322;2022-09-02T00:13:56;20.50;99.90
22781;DHT22;11557;50.884;4.322;2022-09-02T00:16:23;20.50;99.90
22781;DHT22;11557;50.884;4.322;2022-09-02T00:18:50;20.40;99.90
22781;DHT22;11557;50.884;4.322;2022-09-02T00:21:17;20.30;99.90
22781;DHT22;11557;50.884;4.322;2022-09-02T00:23:44;20.30;99.90
22781;DHT22;11557;50.884;4.322;2022-09-02T00:26:12;20.20;99.90
22781;DHT22;11557;50.884;4.322;2022-09-02T00:28:39;20.20;99.90
22781;DHT22;11557;50.884;4.322;2022-09-02T00:31:05;20.20;99.90
22781;DHT22;11557;50.884;4.322;2022-09-02T00:33:31;20.20;99.90
22781;DHT22;11557;50.884;4.322;2022-09-02T00:36:03;20.20;99.90
22781;DHT22;11557;50.884;4.322;2022-09-02T00:38:30;20.20;99.90
22781;DHT22;11557;50.884;4.322;2022-09-02T00:41:03;20.10;99.90
22781;DHT22;11557;50.884;4.322;2022-09-02T00:46:08;20.20;99.90
22781;DHT22;11557;50.884;4.322;2022-09-02T00:48:36;20.00;99.90
22781;DHT22;11557;50.884;4.322;2022-09-02T00:51:06;20.10;99.90
22781;DHT22;11557;50.884;4.322;2022-09-02T00:53:33;20.10;99.90
22781;DHT22;11557;50.884;4.322;2022-09-02T00:56:00;20.10;99.90
22781;DHT22;11557;50.884;4.322;2022-09-02T00:58:29;20.10;99.90
22781;DHT22;11557;50.884;4.322;2022-09-02T01:00:57;20.10;99.90
22781;DHT22;11557;50.884;4.322;2022-09-02T01:03:25;20.00;99.90
22781;DHT22;11557;50.884;4.322;2022-09-02T01:05:53;20.00;99.90
22781;DHT22;11557;50.884;4.322;2022-09-02T01:08:25;20.00;99.90
22781;DHT22;11557;50.884;4.322;2022-09-02T01:10:53;19.90;99.90
22781;DHT22;11557;50.884;4.322;2022-09-02T01:13:34;20.00;99.90
22781;DHT22;11557;50.884;4.322;2022-09-02T01:16:22;19.90;99.90
22781;DHT22;11557;50.884;4.322;2022-09-02T01:18:52;19.90;99.90
22781;DHT22;11557;50.884;4.322;2022-09-02T01:21:21;19.80;99.90
22781;DHT22;11557;50.884;4.322;2022-09-02T01:23:48;19.80;99.90
22781;DHT22;11557;50.884;4.322;2022-09-02T01:26:13;19.80;99.90
22781;DHT22;11557;50.884;4.322;2022-09-02T01:28:40;19.70;99.90
22781;DHT22;11557;50.884;4.322;2022-09-02T01:31:08;19.70;99.90
22781;DHT22;11557;50.884;4.322;2022-09-02T01:33:34;19.70;99.90
22781;DHT22;11557;50.884;4.322;2022-09-02T01:36:00;19.70;99.90
22781;DHT22;11557;50.884;4.322;2022-09-02T01:38:27;19.70;99.90
22781;DHT22;11557;50.884;4.322;2022-09-02T01:40:53;19.70;99.90
22781;DHT22;11557;50.884;4.322;2022-09-02T01:43:22;19.70;99.90
22781;DHT22;11557;50.884;4.322;2022-09-02T01:45:52;19.60;99.90
22781;DHT22;11557;50.884;4.322;2022-09-02T01:48:18;19.60;99.90
22781;DHT22;11557;50.884;4.322;2022-09-02T01:50:48;19.70;99.90
22781;DHT22;11557;50.884;4.322;2022-09-02T01:53:14;19.60;99.90
22781;DHT22;11557;50.884;4.322;2022-09-02T01:55:42;19.60;99.90
22781;DHT22;11557;50.884;4.322;2022-09-02T01:58:08;19.50;99.90
22781;DHT22;11557;50.884;4.322;2022-09-02T02:00:34;19.60;99.90
22781;DHT22;11557;50.884;4.322;2022-09-02T02:03:00;19.50;99.90
22781;DHT22;11557;50.884;4.322;2022-09-02T02:05:26;19.50;99.90
22781;DHT22;11557;50.884;4.322;2022-09-02T02:07:52;19.50;99.90
22781;DHT22;11557;50.884;4.322;2022-09-02T02:10:19;19.50;99.90
22781;DHT22;11557;50.884;4.322;2022-09-02T02:12:45;19.50;99.90
22781;DHT22;11557;50.884;4.322;2022-09-02T02:15:14;19.50;99.90
22781;DHT22;11557;50.884;4.322;2022-09-02T02:17:41;19.40;99.90
22781;DHT22;11557;50.884;4.322;2022-09-02T02:20:09;19.50;99.90
22781;DHT22;11557;50.884;4.322;2022-09-02T02:22:35;19.50;99.90
22781;DHT22;11557;50.884;4.322;2022-09-02T02:25:02;19.80;99.90
22781;DHT22;11557;50.884;4.322;2022-09-02T02:27:28;19.40;99.90
22781;DHT22;11557;50.884;4.322;2022-09-02T02:29:54;19.30;99.90
22781;DHT22;11557;50.884;4.322;2022-09-02T02:32:20;19.20;99.90
22781;DHT22;11557;50.884;4.322;2022-09-02T02:34:47;19.20;99.90
22781;DHT22;11557;50.884;4.322;2022-09-02T02:37:12;19.20;99.90
22781;DHT22;11557;50.884;4.322;2022-09-02T02:39:41;19.20;99.90
22781;DHT22;11557;50.884;4.322;2022-09-02T02:42:07;19.30;99.90
22781;DHT22;11557;50.884;4.322;2022-09-02T02:44:33;19.30;99.90
22781;DHT22;11557;50.884;4.322;2022-09-02T02:46:59;19.20;99.90
22781;DHT22;11557;50.884;4.322;2022-09-02T02:49:26;19.30;99.90
22781;DHT22;11557;50.884;4.322;2022-09-02T02:51:52;19.30;99.90
22781;DHT22;11557;50.884;4.322;2022-09-02T02:54:20;19.30;99.90
22781;DHT22;11557;50.884;4.322;2022-09-02T02:56:45;19.30;99.90
22781;DHT22;11557;50.884;4.322;2022-09-02T02:59:11;19.20;99.90
22781;DHT22;11557;50.884;4.322;2022-09-02T03:01:38;19.10;99.90
22781;DHT22;11557;50.884;4.322;2022-09-02T03:04:04;19.20;99.90
22781;DHT22;11557;50.884;4.322;2022-09-02T03:06:29;19.20;99.90
22781;DHT22;11557;50.884;4.322;2022-09-02T03:08:55;19.20;99.90
22781;DHT22;11557;50.884;4.322;2022-09-02T03:11:22;19.20;99.90
22781;DHT22;11557;50.884;4.322;2022-09-02T03:13:49;19.20;99.90
22781;DHT22;11557;50.884;4.322;2022-09-02T03:16:15;19.20;99.90
22781;DHT22;11557;50.884;4.322;2022-09-02T03:18:41;19.10;99.90
22781;DHT22;11557;50.884;4.322;2022-09-02T03:21:08;19.00;99.90
22781;DHT22;11557;50.884;4.322;2022-09-02T03:23:34;19.00;99.90
22781;DHT22;11557;50.884;4.322;2022-09-02T03:26:00;19.10;99.90
22781;DHT22;11557;50.884;4.322;2022-09-02T03:28:26;19.00;99.90
22781;DHT22;11557;50.884;4.322;2022-09-02T03:30:51;19.00;99.90
22781;DHT22;11557;50.884;4.322;2022-09-02T03:33:17;19.00;99.90
22781;DHT22;11557;50.884;4.322;2022-09-02T03:35:43;19.10;99.90
22781;DHT22;11557;50.884;4.322;2022-09-02T03:38:10;18.90;99.90
22781;DHT22;11557;50.884;4.322;2022-09-02T03:40:37;18.90;99.90
22781;DHT22;11557;50.884;4.322;2022-09-02T03:43:03;18.90;99.90
22781;DHT22;11557;50.884;4.322;2022-09-02T03:45:29;19.20;99.90
22781;DHT22;11557;50.884;4.322;2022-09-02T03:47:55;19.00;99.90
22781;DHT22;11557;50.884;4.322;2022-09-02T03:50:31;19.00;99.90
22781;DHT22;11557;50.884;4.322;2022-09-02T03:52:58;18.90;99.90
22781;DHT22;11557;50.884;4.322;2022-09-02T03:55:24;18.80;99.90
22781;DHT22;11557;50.884;4.322;2022-09-02T03:57:50;18.80;99.90
22781;DHT22;11557;50.884;4.322;2022-09-02T04:00:19;18.70;99.90
22781;DHT22;11557;50.884;4.322;2022-09-02T04:02:45;18.80;99.90
22781;DHT22;11557;50.884;4.322;2022-09-02T04:05:12;18.70;99.90
22781;DHT22;11557;50.884;4.322;2022-09-02T04:07:38;18.80;99.90
22781;DHT22;11557;50.884;4.322;2022-09-02T04:10:05;18.80;99.90
22781;DHT22;11557;50.884;4.322;2022-09-02T04:12:34;18.90;99.90
22781;DHT22;11557;50.884;4.322;2022-09-02T04:15:00;18.90;99.90
22781;DHT22;11557;50.884;4.322;2022-09-02T04:17:25;18.90;99.90
22781;DHT22;11557;50.884;4.322;2022-09-02T04:19:53;18.90;99.90
22781;DHT22;11557;50.884;4.322;2022-09-02T04:22:19;18.80;99.90
22781;DHT22;11557;50.884;4.322;2022-09-02T04:24:45;18.70;99.90
22781;DHT22;11557;50.884;4.322;2022-09-02T04:27:10;18.80;99.90
22781;DHT22;11557;50.884;4.322;2022-09-02T04:29:36;18.70;99.90
22781;DHT22;11557;50.884;4.322;2022-09-02T04:32:02;18.70;99.90
22781;DHT22;11557;50.884;4.322;2022-09-02T04:34:27;18.80;99.90
22781;DHT22;11557;50.884;4.322;2022-09-02T04:36:53;18.80;99.90
22781;DHT22;11557;50.884;4.322;2022-09-02T04:39:19;18.70;99.90
22781;DHT22;11557;50.884;4.322;2022-09-02T04:41:45;18.70;99.90
22781;DHT22;11557;50.884;4.322;2022-09-02T04:44:10;18.80;99.90
22781;DHT22;11557;50.884;4.322;2022-09-02T04:46:36;18.80;99.90
22781;DHT22;11557;50.884;4.322;2022-09-02T04:49:09;18.80;99.90
22781;DHT22;11557;50.884;4.322;2022-09-02T04:51:34;18.80;99.90
22781;DHT22;11557;50.884;4.322;2022-09-02T04:54:00;18.70;99.90
22781;DHT22;11557;50.884;4.322;2022-09-02T04:56:28;18.60;99.90
22781;DHT22;11557;50.884;4.322;2022-09-02T04:58:55;18.70;99.90
22781;DHT22;11557;50.884;4.322;2022-09-02T05:01:25;18.60;99.90
22781;DHT22;11557;50.884;4.322;2022-09-02T05:03:52;18.80;99.90
22781;DHT22;11557;50.884;4.322;2022-09-02T05:06:24;18.90;99.90
22781;DHT22;11557;50.884;4.322;2022-09-02T05:08:52;18.90;99.90
22781;DHT22;11557;50.884;4.322;2022-09-02T05:11:21;19.00;99.90
22781;DHT22;11557;50.884;4.322;2022-09-02T05:13:48;18.70;99.90
22781;DHT22;11557;50.884;4.322;2022-09-02T05:16:17;18.60;99.90
22781;DHT22;11557;50.884;4.322;2022-09-02T05:18:44;18.60;99.90
22781;DHT22;11557;50.884;4.322;2022-09-02T05:21:11;18.70;99.90
22781;DHT22;11557;50.884;4.322;2022-09-02T05:23:36;18.70;99.90
22781;DHT22;11557;50.884;4.322;2022-09-02T05:26:06;18.90;99.90
22781;DHT22;11557;50.884;4.322;2022-09-02T05:28:33;18.70;99.90
22781;DHT22;11557;50.884;4.322;2022-09-02T05:31:08;18.60;99.90
22781;DHT22;11557;50.884;4.322;2022-09-02T05:33:36;18.60;99.90
22781;DHT22;11557;50.884;4.322;2022-09-02T05:36:09;18.60;99.90
22781;DHT22;11557;50.884;4.322;2022-09-02T05:38:40;18.50;99.90
22781;DHT22;11557;50.884;4.322;2022-09-02T05:41:09;18.50;99.90
22781;DHT22;11557;50.884;4.322;2022-09-02T05:43:40;18.50;99.90
22781;DHT22;11557;50.884;4.322;2022-09-02T05:46:11;18.60;99.90
22781;DHT22;11557;50.884;4.322;2022-09-02T05:48:47;18.60;99.90
22781;DHT22;11557;50.884;4.322;2022-09-02T05:51:53;18.60;99.90
22781;DHT22;11557;50.884;4.322;2022-09-02T05:56:52;18.70;99.90
22781;DHT22;11557;50.884;4.322;2022-09-02T05:59:18;18.70;99.90
22781;DHT22;11557;50.884;4.322;2022-09-02T06:01:46;18.80;99.90
22781;DHT22;11557;50.884;4.322;2022-09-02T06:04:12;19.00;99.90
22781;DHT22;11557;50.884;4.322;2022-09-02T06:06:38;18.90;99.90
22781;DHT22;11557;50.884;4.322;2022-09-02T06:09:05;18.90;99.90
22781;DHT22;11557;50.884;4.322;2022-09-02T06:11:33;18.90;99.90
22781;DHT22;11557;50.884;4.322;2022-09-02T06:13:59;18.90;99.90
22781;DHT22;11557;50.884;4.322;2022-09-02T06:16:26;18.90;99.90
22781;DHT22;11557;50.884;4.322;2022-09-02T06:18:52;19.00;99.90
22781;DHT22;11557;50.884;4.322;2022-09-02T06:21:18;19.00;99.90
22781;DHT22;11557;50.884;4.322;2022-09-02T06:23:46;19.00;99.90
22781;DHT22;11557;50.884;4.322;2022-09-02T06:26:13;19.10;99.90
22781;DHT22;11557;50.884;4.322;2022-09-02T06:28:41;19.10;99.90
22781;DHT22;11557;50.884;4.322;2022-09-02T06:31:10;19.10;99.90
22781;DHT22;11557;50.884;4.322;2022-09-02T06:33:37;19.20;99.90
22781;DHT22;11557;50.884;4.322;2022-09-02T06:36:09;19.30;99.90
22781;DHT22;11557;50.884;4.322;2022-09-02T06:38:38;19.30;99.90
22781;DHT22;11557;50.884;4.322;2022-09-02T06:41:04;19.30;99.90
22781;DHT22;11557;50.884;4.322;2022-09-02T06:43:29;19.40;99.90
22781;DHT22;11557;50.884;4.322;2022-09-02T06:45:56;19.60;99.90
22781;DHT22;11557;50.884;4.322;2022-09-02T06:48:22;19.70;99.90
22781;DHT22;11557;50.884;4.322;2022-09-02T06:50:47;19.80;99.90
22781;DHT22;11557;50.884;4.322;2022-09-02T06:53:13;19.80;99.90
22781;DHT22;11557;50.884;4.322;2022-09-02T06:55:41;19.80;99.90
22781;DHT22;11557;50.884;4.322;2022-09-02T06:58:08;19.90;99.90
22781;DHT22;11557;50.884;4.322;2022-09-02T07:00:34;20.00;99.90
22781;DHT22;11557;50.884;4.322;2022-09-02T07:03:01;20.30;99.90
22781;DHT22;11557;50.884;4.322;2022-09-02T07:05:58;20.10;99.90
22781;DHT22;11557;50.884;4.322;2022-09-02T07:08:23;20.20;99.90
22781;DHT22;11557;50.884;4.322;2022-09-02T07:10:49;20.30;99.90
22781;DHT22;11557;50.884;4.322;2022-09-02T07:13:14;20.30;99.90
22781;DHT22;11557;50.884;4.322;2022-09-02T07:15:40;20.40;99.90
22781;DHT22;11557;50.884;4.322;2022-09-02T07:18:06;20.40;99.90
22781;DHT22;11557;50.884;4.322;2022-09-02T07:20:31;20.40;99.90
22781;DHT22;11557;50.884;4.322;2022-09-02T07:23:00;20.50;99.90
22781;DHT22;11557;50.884;4.322;2022-09-02T07:25:26;20.50;99.90
22781;DHT22;11557;50.884;4.322;2022-09-02T07:27:51;20.50;99.90
22781;DHT22;11557;50.884;4.322;2022-09-02T07:30:20;20.60;99.90
22781;DHT22;11557;50.884;4.322;2022-09-02T07:32:47;20.70;99.90
22781;DHT22;11557;50.884;4.322;2022-09-02T07:35:14;20.80;99.90
22781;DHT22;11557;50.884;4.322;2022-09-02T07:37:43;20.80;99.90
22781;DHT22;11557;50.884;4.322;2022-09-02T07:40:16;20.80;99.90
22781;DHT22;11557;50.884;4.322;2022-09-02T07:42:42;21.00;99.90
22781;DHT22;11557;50.884;4.322;2022-09-02T07:45:09;21.00;99.90
22781;DHT22;11557;50.884;4.322;2022-09-02T07:47:36;21.10;99.90
22781;DHT22;11557;50.884;4.322;2022-09-02T07:50:02;21.10;99.90
22781;DHT22;11557;50.884;4.322;2022-09-02T07:52:28;21.20;99.90
22781;DHT22;11557;50.884;4.322;2022-09-02T07:54:55;21.30;99.90
22781;DHT22;11557;50.884;4.322;2022-09-02T07:57:22;21.30;99.90
22781;DHT22;11557;50.884;4.322;2022-09-02T07:59:49;21.50;99.90
22781;DHT22;11557;50.884;4.322;2022-09-02T08:02:15;21.40;99.90
22781;DHT22;11557;50.884;4.322;2022-09-02T08:04:43;21.50;99.90
22781;DHT22;11557;50.884;4.322;2022-09-02T08:07:09;21.50;99.90
22781;DHT22;11557;50.884;4.322;2022-09-02T08:09:36;21.70;99.90
22781;DHT22;11557;50.884;4.322;2022-09-02T08:12:02;21.70;99.90
22781;DHT22;11557;50.884;4.322;2022-09-02T08:14:29;21.70;99.90
22781;DHT22;11557;50.884;4.322;2022-09-02T08:16:56;21.80;99.90
22781;DHT22;11557;50.884;4.322;2022-09-02T08:19:23;21.90;99.90
22781;DHT22;11557;50.884;4.322;2022-09-02T08:21:50;21.90;99.90
22781;DHT22;11557;50.884;4.322;2022-09-02T08:24:17;22.00;99.90
22781;DHT22;11557;50.884;4.322;2022-09-02T08:26:42;22.10;99.90
22781;DHT22;11557;50.884;4.322;2022-09-02T08:29:08;22.20;99.90
22781;DHT22;11557;50.884;4.322;2022-09-02T08:31:36;22.20;99.90
22781;DHT22;11557;50.884;4.322;2022-09-02T08:34:02;22.40;99.90
22781;DHT22;11557;50.884;4.322;2022-09-02T08:36:28;23.20;99.90
22781;DHT22;11557;50.884;4.322;2022-09-02T08:38:54;25.10;99.90
22781;DHT22;11557;50.884;4.322;2022-09-02T08:41:33;26.90;99.90
22781;DHT22;11557;50.884;4.322;2022-09-02T08:44:10;28.10;99.90
22781;DHT22;11557;50.884;4.322;2022-09-02T08:46:39;29.20;99.90
22781;DHT22;11557;50.884;4.322;2022-09-02T08:49:24;30.50;99.90
22781;DHT22;11557;50.884;4.322;2022-09-02T08:51:56;31.60;99.90
22781;DHT22;11557;50.884;4.322;2022-09-02T08:57:08;34.10;99.90
22781;DHT22;11557;50.884;4.322;2022-09-02T08:59:38;35.10;97.70
22781;DHT22;11557;50.884;4.322;2022-09-02T09:16:13;38.40;91.80
22781;DHT22;11557;50.884;4.322;2022-09-02T09:19:16;38.40;91.30
22781;DHT22;11557;50.884;4.322;2022-09-02T09:21:49;38.70;91.00
22781;DHT22;11557;50.884;4.322;2022-09-02T09:26:59;39.10;90.50
22781;DHT22;11557;50.884;4.322;2022-09-02T09:29:51;39.60;88.60
22781;DHT22;11557;50.884;4.322;2022-09-02T09:32:29;39.30;90.30
22781;DHT22;11557;50.884;4.322;2022-09-02T09:35:08;39.30;89.90
22781;DHT22;11557;50.884;4.322;2022-09-02T09:37:41;38.70;89.90
22781;DHT22;11557;50.884;4.322;2022-09-02T09:45:41;38.50;90.10
22781;DHT22;11557;50.884;4.322;2022-09-02T09:56:04;38.00;89.60
22781;DHT22;11557;50.884;4.322;2022-09-02T10:01:17;37.60;89.70
22781;DHT22;11557;50.884;4.322;2022-09-02T10:12:31;36.50;87.60
22781;DHT22;11557;50.884;4.322;2022-09-02T10:15:03;37.60;90.60
22781;DHT22;11557;50.884;4.322;2022-09-02T10:18:06;37.80;88.80
22781;DHT22;11557;50.884;4.322;2022-09-02T10:27:29;37.10;90.30
22781;DHT22;11557;50.884;4.322;2022-09-02T10:30:21;36.90;89.20
22781;DHT22;11557;50.884;4.322;2022-09-02T10:36:15;36.30;89.30
22781;DHT22;11557;50.884;4.322;2022-09-02T10:38:48;36.00;90.80
22781;DHT22;11557;50.884;4.322;2022-09-02T10:41:49;35.70;89.20
22781;DHT22;11557;50.884;4.322;2022-09-02T10:44:26;35.40;91.60
22781;DHT22;11557;50.884;4.322;2022-09-02T10:47:09;35.10;91.60
22781;DHT22;11557;50.884;4.322;2022-09-02T11:08:35;34.00;92.40
22781;DHT22;11557;50.884;4.322;2022-09-02T11:23:34;32.50;92.60
22781;DHT22;11557;50.884;4.322;2022-09-02T11:26:15;33.30;92.50
22781;DHT22;11557;50.884;4.322;2022-09-02T11:31:40;33.30;92.50
22781;DHT22;11557;50.884;4.322;2022-09-02T11:34:33;33.40;93.40
22781;DHT22;11557;50.884;4.322;2022-09-02T11:37:11;33.50;92.50
22781;DHT22;11557;50.884;4.322;2022-09-02T11:39:49;33.30;92.10
22781;DHT22;11557;50.884;4.322;2022-09-02T11:50:53;33.10;92.30
22781;DHT22;11557;50.884;4.322;2022-09-02T11:53:30;33.10;92.40
22781;DHT22;11557;50.884;4.322;2022-09-02T11:56:02;32.80;91.10
22781;DHT22;11557;50.884;4.322;2022-09-02T11:58:40;32.40;92.40
22781;DHT22;11557;50.884;4.322;2022-09-02T12:01:32;32.10;90.80
22781;DHT22;11557;50.884;4.322;2022-09-02T12:04:23;32.00;91.70
22781;DHT22;11557;50.884;4.322;2022-09-02T12:17:37;32.10;91.70
22781;DHT22;11557;50.884;4.322;2022-09-02T12:20:10;31.80;91.60
22781;DHT22;11557;50.884;4.322;2022-09-02T12:22:38;31.70;92.60
22781;DHT22;11557;50.884;4.322;2022-09-02T12:28:07;31.90;91.20
22781;DHT22;11557;50.884;4.322;2022-09-02T12:33:49;31.90;91.40
22781;DHT22;11557;50.884;4.322;2022-09-02T12:49:48;31.20;91.30
22781;DHT22;11557;50.884;4.322;2022-09-02T12:55:19;31.20;91.40
22781;DHT22;11557;50.884;4.322;2022-09-02T12:57:49;31.10;90.90
22781;DHT22;11557;50.884;4.322;2022-09-02T13:03:57;30.60;90.00
22781;DHT22;11557;50.884;4.322;2022-09-02T13:17:44;30.90;90.00
22781;DHT22;11557;50.884;4.322;2022-09-02T13:22:57;31.30;89.80
22781;DHT22;11557;50.884;4.322;2022-09-02T13:28:26;31.70;90.40
22781;DHT22;11557;50.884;4.322;2022-09-02T13:31:23;31.70;87.00
22781;DHT22;11557;50.884;4.322;2022-09-02T13:34:13;31.90;88.30
22781;DHT22;11557;50.884;4.322;2022-09-02T13:36:43;32.00;88.10
22781;DHT22;11557;50.884;4.322;2022-09-02T13:41:43;32.10;86.50
22781;DHT22;11557;50.884;4.322;2022-09-02T13:44:12;32.10;87.00
22781;DHT22;11557;50.884;4.322;2022-09-02T13:46:49;32.00;88.10
22781;DHT22;11557;50.884;4.322;2022-09-02T13:49:25;31.70;87.80
22781;DHT22;11557;50.884;4.322;2022-09-02T13:51:53;31.70;84.30
22781;DHT22;11557;50.884;4.322;2022-09-02T13:54:32;31.50;85.70
22781;DHT22;11557;50.884;4.322;2022-09-02T13:57:01;31.10;86.80
22781;DHT22;11557;50.884;4.322;2022-09-02T13:59:41;30.90;86.30
22781;DHT22;11557;50.884;4.322;2022-09-02T14:02:37;31.00;88.40
22781;DHT22;11557;50.884;4.322;2022-09-02T14:05:14;31.10;88.20
22781;DHT22;11557;50.884;4.322;2022-09-02T14:07:43;31.20;87.70
22781;DHT22;11557;50.884;4.322;2022-09-02T14:10:14;31.30;86.70
22781;DHT22;11557;50.884;4.322;2022-09-02T14:12:42;31.20;86.20
22781;DHT22;11557;50.884;4.322;2022-09-02T14:15:15;31.20;88.10
22781;DHT22;11557;50.884;4.322;2022-09-02T14:17:41;31.10;87.00
22781;DHT22;11557;50.884;4.322;2022-09-02T14:20:20;31.10;88.20
22781;DHT22;11557;50.884;4.322;2022-09-02T14:22:54;31.10;85.60
22781;DHT22;11557;50.884;4.322;2022-09-02T14:25:22;31.20;86.80
22781;DHT22;11557;50.884;4.322;2022-09-02T14:27:56;31.20;87.60
22781;DHT22;11557;50.884;4.322;2022-09-02T14:30:52;31.30;86.50
22781;DHT22;11557;50.884;4.322;2022-09-02T14:36:02;31.50;87.20
22781;DHT22;11557;50.884;4.322;2022-09-02T14:38:43;31.60;86.00
22781;DHT22;11557;50.884;4.322;2022-09-02T14:43:49;31.60;86.20
22781;DHT22;11557;50.884;4.322;2022-09-02T14:48:54;31.50;86.80
22781;DHT22;11557;50.884;4.322;2022-09-02T14:51:21;31.50;83.70
22781;DHT22;11557;50.884;4.322;2022-09-02T14:53:47;31.40;84.90
22781;DHT22;11557;50.884;4.322;2022-09-02T14:56:13;31.30;85.70
22781;DHT22;11557;50.884;4.322;2022-09-02T14:58:38;31.30;85.00
22781;DHT22;11557;50.884;4.322;2022-09-02T15:01:04;31.40;85.00
22781;DHT22;11557;50.884;4.322;2022-09-02T15:03:36;31.40;84.70
22781;DHT22;11557;50.884;4.322;2022-09-02T15:06:01;31.20;83.90
22781;DHT22;11557;50.884;4.322;2022-09-02T15:08:27;31.20;85.50
22781;DHT22;11557;50.884;4.322;2022-09-02T15:10:53;30.90;85.00
22781;DHT22;11557;50.884;4.322;2022-09-02T15:13:28;30.60;84.30
22781;DHT22;11557;50.884;4.322;2022-09-02T15:15:57;30.50;85.10
22781;DHT22;11557;50.884;4.322;2022-09-02T15:18:23;30.30;85.10
22781;DHT22;11557;50.884;4.322;2022-09-02T15:20:49;30.10;84.60
22781;DHT22;11557;50.884;4.322;2022-09-02T15:23:15;30.00;86.10
22781;DHT22;11557;50.884;4.322;2022-09-02T15:25:42;29.90;87.10
22781;DHT22;11557;50.884;4.322;2022-09-02T15:28:07;29.90;86.40
22781;DHT22;11557;50.884;4.322;2022-09-02T15:30:34;29.80;86.90
22781;DHT22;11557;50.884;4.322;2022-09-02T15:33:04;29.80;85.60
22781;DHT22;11557;50.884;4.322;2022-09-02T15:35:31;29.60;87.10
22781;DHT22;11557;50.884;4.322;2022-09-02T15:37:58;29.60;88.90
22781;DHT22;11557;50.884;4.322;2022-09-02T15:40:24;29.50;85.30
22781;DHT22;11557;50.884;4.322;2022-09-02T15:42:50;29.30;86.00
22781;DHT22;11557;50.884;4.322;2022-09-02T15:45:15;29.30;87.90
22781;DHT22;11557;50.884;4.322;2022-09-02T15:47:41;29.40;87.40
22781;DHT22;11557;50.884;4.322;2022-09-02T15:50:07;29.40;85.50
22781;DHT22;11557;50.884;4.322;2022-09-02T15:52:34;29.20;87.20
22781;DHT22;11557;50.884;4.322;2022-09-02T15:54:59;29.20;87.70
22781;DHT22;11557;50.884;4.322;2022-09-02T15:57:25;29.00;85.60
22781;DHT22;11557;50.884;4.322;2022-09-02T15:59:51;29.00;85.90
22781;DHT22;11557;50.884;4.322;2022-09-02T16:02:16;29.00;86.10
22781;DHT22;11557;50.884;4.322;2022-09-02T16:04:53;28.90;85.20
22781;DHT22;11557;50.884;4.322;2022-09-02T16:07:27;28.90;85.00
22781;DHT22;11557;50.884;4.322;2022-09-02T16:09:53;28.80;86.00
22781;DHT22;11557;50.884;4.322;2022-09-02T16:12:19;28.70;86.50
22781;DHT22;11557;50.884;4.322;2022-09-02T16:14:44;28.80;86.20
22781;DHT22;11557;50.884;4.322;2022-09-02T16:17:15;28.80;86.70
22781;DHT22;11557;50.884;4.322;2022-09-02T16:19:41;28.70;86.50
22781;DHT22;11557;50.884;4.322;2022-09-02T16:22:06;28.80;87.60
22781;DHT22;11557;50.884;4.322;2022-09-02T16:24:32;28.80;88.10
22781;DHT22;11557;50.884;4.322;2022-09-02T16:26:57;28.80;88.30
22781;DHT22;11557;50.884;4.322;2022-09-02T16:29:23;28.80;88.10
22781;DHT22;11557;50.884;4.322;2022-09-02T16:31:51;28.80;89.00
22781;DHT22;11557;50.884;4.322;2022-09-02T16:34:17;28.80;88.30
22781;DHT22;11557;50.884;4.322;2022-09-02T16:36:46;28.70;86.70
22781;DHT22;11557;50.884;4.322;2022-09-02T16:39:15;28.70;86.50
22781;DHT22;11557;50.884;4.322;2022-09-02T16:41:49;28.60;87.40
22781;DHT22;11557;50.884;4.322;2022-09-02T16:44:17;28.50;86.50
22781;DHT22;11557;50.884;4.322;2022-09-02T16:46:43;28.50;86.90
22781;DHT22;11557;50.884;4.322;2022-09-02T16:49:14;28.50;88.10
22781;DHT22;11557;50.884;4.322;2022-09-02T16:51:47;28.40;87.70
22781;DHT22;11557;50.884;4.322;2022-09-02T16:54:13;28.40;89.00
22781;DHT22;11557;50.884;4.322;2022-09-02T16:56:39;28.30;87.50
22781;DHT22;11557;50.884;4.322;2022-09-02T16:59:06;28.30;89.70
22781;DHT22;11557;50.884;4.322;2022-09-02T17:01:33;28.30;87.00
22781;DHT22;11557;50.884;4.322;2022-09-02T17:03:59;28.30;87.10
22781;DHT22;11557;50.884;4.322;2022-09-02T17:06:26;28.20;86.80
22781;DHT22;11557;50.884;4.322;2022-09-02T17:08:52;28.20;86.60
22781;DHT22;11557;50.884;4.322;2022-09-02T17:13:52;28.10;88.20
22781;DHT22;11557;50.884;4.322;2022-09-02T17:16:19;28.00;88.60
22781;DHT22;11557;50.884;4.322;2022-09-02T17:18:45;28.00;87.60
22781;DHT22;11557;50.884;4.322;2022-09-02T17:21:50;27.90;88.40
22781;DHT22;11557;50.884;4.322;2022-09-02T17:24:17;27.90;88.00
22781;DHT22;11557;50.884;4.322;2022-09-02T17:26:46;27.90;88.30
22781;DHT22;11557;50.884;4.322;2022-09-02T17:29:14;27.80;88.40
22781;DHT22;11557;50.884;4.322;2022-09-02T17:31:43;27.80;89.20
22781;DHT22;11557;50.884;4.322;2022-09-02T17:34:09;27.80;89.30
22781;DHT22;11557;50.884;4.322;2022-09-02T17:36:37;27.70;90.10
22781;DHT22;11557;50.884;4.322;2022-09-02T17:39:09;27.70;90.00
22781;DHT22;11557;50.884;4.322;2022-09-02T17:41:35;27.70;90.20
22781;DHT22;11557;50.884;4.322;2022-09-02T17:44:20;27.60;90.30
22781;DHT22;11557;50.884;4.322;2022-09-02T17:46:46;27.50;90.50
22781;DHT22;11557;50.884;4.322;2022-09-02T17:49:12;27.50;90.50
22781;DHT22;11557;50.884;4.322;2022-09-02T17:51:41;27.40;90.80
22781;DHT22;11557;50.884;4.322;2022-09-02T17:54:10;27.40;90.90
22781;DHT22;11557;50.884;4.322;2022-09-02T18:02:18;27.30;90.70
22781;DHT22;11557;50.884;4.322;2022-09-02T18:05:53;27.20;90.90
22781;DHT22;11557;50.884;4.322;2022-09-02T18:08:14;27.00;90.60
22781;DHT22;11557;50.884;4.322;2022-09-02T18:10:51;27.10;90.50
22781;DHT22;11557;50.884;4.322;2022-09-02T18:16:29;27.00;90.80
22781;DHT22;11557;50.884;4.322;2022-09-02T18:19:11;26.90;90.60
22781;DHT22;11557;50.884;4.322;2022-09-02T18:21:50;26.90;93.20
22781;DHT22;11557;50.884;4.322;2022-09-02T18:27:08;26.90;95.70
22781;DHT22;11557;50.884;4.322;2022-09-02T18:35:14;26.70;97.10
22781;DHT22;11557;50.884;4.322;2022-09-02T18:45:50;26.50;97.70
22781;DHT22;11557;50.884;4.322;2022-09-02T18:48:29;26.50;98.20
22781;DHT22;11557;50.884;4.322;2022-09-02T18:50:59;26.50;98.30
22781;DHT22;11557;50.884;4.322;2022-09-02T18:53:40;26.30;99.40
22781;DHT22;11557;50.884;4.322;2022-09-02T18:56:08;26.10;99.90
22781;DHT22;11557;50.884;4.322;2022-09-02T18:58:51;26.10;99.90
22781;DHT22;11557;50.884;4.322;2022-09-02T19:01:21;26.00;99.90